sensor_id;sensor_type;location;lat;lon;timestamp;P1;durP1;ratioP1;P2;durP2;ratioP2
13469;SDS011;6807;48.682;9.032;2023-06-22T00:00:53;12.43;;;8.40;;
13469;SDS011;6807;48.682;9.032;2023-06-22T00:03:21;13.82;;;7.90;;
13469;SDS011;6807;48.682;9.032;2023-06-22T00:05:49;10.65;;;8.40;;
13469;SDS011;6807;48.682;9.032;2023-06-22T00:08:17;10.70;;;8.80;;
13469;SDS011;6807;48.682;9.032;2023-06-22T00:10:44;10.02;;;8.27;;
13469;SDS011;6807;48.682;9.032;2023-06-22T00:13:12;10.32;;;9.18;;
13469;SDS011;6807;48.682;9.032;2023-06-22T00:15:40;11.88;;;8.50;;
13469;SDS011;6807;48.682;9.032;2023-06-22T00:18:09;9.93;;;9.02;;
13469;SDS011;6807;48.682;9.032;2023-06-22T00:20:36;11.07;;;8.00;;
13469;SDS011;6807;48.682;9.032;2023-06-22T00:23:04;10.48;;;8.65;;
13469;SDS011;6807;48.682;9.032;2023-06-22T00:25:33;10.10;;;8.25;;
13469;SDS011;6807;48.682;9.032;2023-06-22T00:28:00;11.48;;;8.48;;
13469;SDS011;6807;48.682;9.032;2023-06-22T00:30:27;12.38;;;8.68;;
13469;SDS011;6807;48.682;9.032;2023-06-22T00:32:54;13.27;;;8.77;;
13469;SDS011;6807;48.682;9.032;2023-06-22T00:35:23;10.65;;;8.68;;
13469;SDS011;6807;48.682;9.032;2023-06-22T00:37:54;11.35;;;8.32;;
13469;SDS011;6807;48.682;9.032;2023-06-22T00:40:26;10.77;;;8.02;;
13469;SDS011;6807;48.682;9.032;2023-06-22T00:42:53;12.43;;;8.73;;
13469;SDS011;6807;48.682;9.032;2023-06-22T00:45:20;11.07;;;9.57;;
13469;SDS011;6807;48.682;9.032;2023-06-22T00:47:49;12.32;;;8.93;;
13469;SDS011;6807;48.682;9.032;2023-06-22T00:50:18;12.07;;;8.68;;
13469;SDS011;6807;48.682;9.032;2023-06-22T00:52:49;12.05;;;8.40;;
13469;SDS011;6807;48.682;9.032;2023-06-22T00:55:18;13.00;;;9.05;;
13469;SDS011;6807;48.682;9.032;2023-06-22T00:57:46;14.85;;;9.52;;
13469;SDS011;6807;48.682;9.032;2023-06-22T01:00:14;10.15;;;8.63;;
13469;SDS011;6807;48.682;9.032;2023-06-22T01:02:43;11.98;;;9.20;;
13469;SDS011;6807;48.682;9.032;2023-06-22T01:05:11;11.75;;;8.93;;
13469;SDS011;6807;48.682;9.032;2023-06-22T01:07:39;11.65;;;8.75;;
13469;SDS011;6807;48.682;9.032;2023-06-22T01:10:14;12.32;;;8.13;;
13469;SDS011;6807;48.682;9.032;2023-06-22T01:12:48;11.98;;;8.55;;
13469;SDS011;6807;48.682;9.032;2023-06-22T01:15:21;10.23;;;8.32;;
13469;SDS011;6807;48.682;9.032;2023-06-22T01:17:51;12.07;;;8.70;;
13469;SDS011;6807;48.682;9.032;2023-06-22T01:20:19;10.23;;;7.13;;
13469;SDS011;6807;48.682;9.032;2023-06-22T01:22:50;10.02;;;8.07;;
13469;SDS011;6807;48.682;9.032;2023-06-22T01:25:31;10.73;;;8.30;;
13469;SDS011;6807;48.682;9.032;2023-06-22T01:28:10;13.48;;;7.35;;
13469;SDS011;6807;48.682;9.032;2023-06-22T01:30:51;10.27;;;8.07;;
13469;SDS011;6807;48.682;9.032;2023-06-22T01:33:31;10.73;;;8.20;;
13469;SDS011;6807;48.682;9.032;2023-06-22T01:36:00;9.20;;;8.20;;
13469;SDS011;6807;48.682;9.032;2023-06-22T01:38:28;9.35;;;7.90;;
13469;SDS011;6807;48.682;9.032;2023-06-22T01:40:56;13.73;;;8.75;;
13469;SDS011;6807;48.682;9.032;2023-06-22T01:43:24;12.90;;;8.95;;
13469;SDS011;6807;48.682;9.032;2023-06-22T01:45:54;15.35;;;9.77;;
13469;SDS011;6807;48.682;9.032;2023-06-22T01:48:22;12.68;;;8.68;;
13469;SDS011;6807;48.682;9.032;2023-06-22T01:50:51;11.43;;;9.55;;
13469;SDS011;6807;48.682;9.032;2023-06-22T01:53:20;12.32;;;8.70;;
13469;SDS011;6807;48.682;9.032;2023-06-22T01:55:47;9.90;;;8.88;;
13469;SDS011;6807;48.682;9.032;2023-06-22T01:58:14;11.85;;;9.20;;
13469;SDS011;6807;48.682;9.032;2023-06-22T02:00:44;10.13;;;8.20;;
13469;SDS011;6807;48.682;9.032;2023-06-22T02:03:18;10.50;;;8.82;;
13469;SDS011;6807;48.682;9.032;2023-06-22T02:05:49;12.43;;;9.10;;
13469;SDS011;6807;48.682;9.032;2023-06-22T02:08:22;9.63;;;8.68;;
13469;SDS011;6807;48.682;9.032;2023-06-22T02:10:54;9.73;;;8.50;;
13469;SDS011;6807;48.682;9.032;2023-06-22T02:13:24;13.73;;;9.15;;
13469;SDS011;6807;48.682;9.032;2023-06-22T02:15:51;11.52;;;8.63;;
13469;SDS011;6807;48.682;9.032;2023-06-22T02:18:20;11.90;;;8.73;;
13469;SDS011;6807;48.682;9.032;2023-06-22T02:20:47;10.02;;;7.70;;
13469;SDS011;6807;48.682;9.032;2023-06-22T02:23:14;11.75;;;8.65;;
13469;SDS011;6807;48.682;9.032;2023-06-22T02:25:41;12.30;;;8.70;;
13469;SDS011;6807;48.682;9.032;2023-06-22T02:28:09;15.30;;;9.20;;
13469;SDS011;6807;48.682;9.032;2023-06-22T02:30:36;10.63;;;8.65;;
13469;SDS011;6807;48.682;9.032;2023-06-22T02:33:04;10.80;;;8.70;;
13469;SDS011;6807;48.682;9.032;2023-06-22T02:35:32;12.48;;;8.52;;
13469;SDS011;6807;48.682;9.032;2023-06-22T02:38:00;12.85;;;8.13;;
13469;SDS011;6807;48.682;9.032;2023-06-22T02:40:28;10.13;;;8.73;;
13469;SDS011;6807;48.682;9.032;2023-06-22T02:42:56;14.65;;;8.95;;
13469;SDS011;6807;48.682;9.032;2023-06-22T02:45:26;12.35;;;8.30;;
13469;SDS011;6807;48.682;9.032;2023-06-22T02:47:53;9.43;;;8.45;;
13469;SDS011;6807;48.682;9.032;2023-06-22T02:50:21;13.57;;;8.40;;
13469;SDS011;6807;48.682;9.032;2023-06-22T02:52:49;10.25;;;8.50;;
13469;SDS011;6807;48.682;9.032;2023-06-22T02:55:16;10.32;;;8.27;;
13469;SDS011;6807;48.682;9.032;2023-06-22T02:57:43;10.55;;;8.40;;
13469;SDS011;6807;48.682;9.032;2023-06-22T03:00:12;11.90;;;8.57;;
13469;SDS011;6807;48.682;9.032;2023-06-22T03:02:42;13.35;;;8.60;;
13469;SDS011;6807;48.682;9.032;2023-06-22T03:05:09;10.05;;;8.38;;
13469;SDS011;6807;48.682;9.032;2023-06-22T03:07:38;10.38;;;8.45;;
13469;SDS011;6807;48.682;9.032;2023-06-22T03:10:08;10.82;;;8.05;;
13469;SDS011;6807;48.682;9.032;2023-06-22T03:12:35;9.90;;;8.43;;
13469;SDS011;6807;48.682;9.032;2023-06-22T03:15:03;14.35;;;8.38;;
13469;SDS011;6807;48.682;9.032;2023-06-22T03:17:31;10.90;;;8.43;;
13469;SDS011;6807;48.682;9.032;2023-06-22T03:19:59;12.77;;;7.90;;
13469;SDS011;6807;48.682;9.032;2023-06-22T03:22:26;11.95;;;8.55;;
13469;SDS011;6807;48.682;9.032;2023-06-22T03:24:53;11.48;;;8.65;;
13469;SDS011;6807;48.682;9.032;2023-06-22T03:27:21;10.35;;;9.02;;
13469;SDS011;6807;48.682;9.032;2023-06-22T03:29:48;10.00;;;7.80;;
13469;SDS011;6807;48.682;9.032;2023-06-22T03:32:15;10.85;;;8.25;;
13469;SDS011;6807;48.682;9.032;2023-06-22T03:34:42;9.32;;;7.90;;
13469;SDS011;6807;48.682;9.032;2023-06-22T03:37:12;10.93;;;8.60;;
13469;SDS011;6807;48.682;9.032;2023-06-22T03:39:39;10.23;;;7.15;;
13469;SDS011;6807;48.682;9.032;2023-06-22T03:42:06;12.27;;;7.72;;
13469;SDS011;6807;48.682;9.032;2023-06-22T03:44:35;11.10;;;8.45;;
13469;SDS011;6807;48.682;9.032;2023-06-22T03:47:02;10.32;;;8.60;;
13469;SDS011;6807;48.682;9.032;2023-06-22T03:49:31;8.85;;;7.97;;
13469;SDS011;6807;48.682;9.032;2023-06-22T03:51:59;12.25;;;8.23;;
13469;SDS011;6807;48.682;9.032;2023-06-22T03:54:26;10.13;;;8.85;;
13469;SDS011;6807;48.682;9.032;2023-06-22T03:56:53;11.57;;;8.35;;
13469;SDS011;6807;48.682;9.032;2023-06-22T03:59:19;12.85;;;9.57;;
13469;SDS011;6807;48.682;9.032;2023-06-22T04:01:48;9.50;;;8.50;;
13469;SDS011;6807;48.682;9.032;2023-06-22T04:04:15;11.50;;;9.13;;
13469;SDS011;6807;48.682;9.032;2023-06-22T04:06:42;9.52;;;8.60;;
13469;SDS011;6807;48.682;9.032;2023-06-22T04:09:09;11.45;;;8.40;;
13469;SDS011;6807;48.682;9.032;2023-06-22T04:11:36;9.30;;;8.40;;
13469;SDS011;6807;48.682;9.032;2023-06-22T04:14:03;13.20;;;8.77;;
13469;SDS011;6807;48.682;9.032;2023-06-22T04:16:30;10.27;;;9.10;;
13469;SDS011;6807;48.682;9.032;2023-06-22T04:18:58;12.20;;;8.10;;
13469;SDS011;6807;48.682;9.032;2023-06-22T04:21:25;10.55;;;9.20;;
13469;SDS011;6807;48.682;9.032;2023-06-22T04:23:52;9.73;;;8.65;;
13469;SDS011;6807;48.682;9.032;2023-06-22T04:26:19;10.68;;;8.10;;
13469;SDS011;6807;48.682;9.032;2023-06-22T04:28:47;9.82;;;8.23;;
13469;SDS011;6807;48.682;9.032;2023-06-22T04:31:16;11.43;;;8.27;;
13469;SDS011;6807;48.682;9.032;2023-06-22T04:33:44;10.30;;;8.00;;
13469;SDS011;6807;48.682;9.032;2023-06-22T04:36:13;10.93;;;8.55;;
13469;SDS011;6807;48.682;9.032;2023-06-22T04:38:40;9.02;;;8.13;;
13469;SDS011;6807;48.682;9.032;2023-06-22T04:41:07;9.95;;;7.80;;
13469;SDS011;6807;48.682;9.032;2023-06-22T04:43:48;10.80;;;7.97;;
13469;SDS011;6807;48.682;9.032;2023-06-22T04:46:19;9.05;;;7.93;;
13469;SDS011;6807;48.682;9.032;2023-06-22T04:49:09;11.90;;;8.10;;
13469;SDS011;6807;48.682;9.032;2023-06-22T04:51:39;11.45;;;8.20;;
13469;SDS011;6807;48.682;9.032;2023-06-22T04:54:07;8.68;;;7.28;;
13469;SDS011;6807;48.682;9.032;2023-06-22T04:56:36;10.98;;;8.20;;
13469;SDS011;6807;48.682;9.032;2023-06-22T04:59:06;12.00;;;8.23;;
13469;SDS011;6807;48.682;9.032;2023-06-22T05:01:38;11.57;;;8.45;;
13469;SDS011;6807;48.682;9.032;2023-06-22T05:04:06;9.88;;;7.78;;
13469;SDS011;6807;48.682;9.032;2023-06-22T05:09:07;12.52;;;7.40;;
13469;SDS011;6807;48.682;9.032;2023-06-22T05:11:34;9.77;;;6.88;;
13469;SDS011;6807;48.682;9.032;2023-06-22T05:14:02;7.93;;;7.13;;
13469;SDS011;6807;48.682;9.032;2023-06-22T05:16:29;8.52;;;7.07;;
13469;SDS011;6807;48.682;9.032;2023-06-22T05:18:56;7.72;;;6.07;;
13469;SDS011;6807;48.682;9.032;2023-06-22T05:21:24;8.63;;;7.22;;
13469;SDS011;6807;48.682;9.032;2023-06-22T05:23:53;8.82;;;7.03;;
13469;SDS011;6807;48.682;9.032;2023-06-22T05:26:21;7.28;;;6.22;;
13469;SDS011;6807;48.682;9.032;2023-06-22T05:28:48;10.23;;;6.38;;
13469;SDS011;6807;48.682;9.032;2023-06-22T05:31:16;7.60;;;6.65;;
13469;SDS011;6807;48.682;9.032;2023-06-22T05:33:46;13.48;;;6.82;;
13469;SDS011;6807;48.682;9.032;2023-06-22T05:36:14;10.60;;;6.53;;
13469;SDS011;6807;48.682;9.032;2023-06-22T05:38:41;7.57;;;5.70;;
13469;SDS011;6807;48.682;9.032;2023-06-22T05:41:16;8.80;;;5.97;;
13469;SDS011;6807;48.682;9.032;2023-06-22T05:43:44;7.15;;;5.78;;
13469;SDS011;6807;48.682;9.032;2023-06-22T05:46:17;8.73;;;5.78;;
13469;SDS011;6807;48.682;9.032;2023-06-22T05:48:44;9.85;;;5.90;;
13469;SDS011;6807;48.682;9.032;2023-06-22T05:51:11;6.72;;;5.90;;
13469;SDS011;6807;48.682;9.032;2023-06-22T05:53:38;7.15;;;5.72;;
13469;SDS011;6807;48.682;9.032;2023-06-22T05:56:13;8.43;;;5.78;;
13469;SDS011;6807;48.682;9.032;2023-06-22T05:58:48;6.55;;;5.70;;
13469;SDS011;6807;48.682;9.032;2023-06-22T06:01:15;6.97;;;5.82;;
13469;SDS011;6807;48.682;9.032;2023-06-22T06:03:44;7.25;;;5.00;;
13469;SDS011;6807;48.682;9.032;2023-06-22T06:06:11;8.43;;;5.60;;
13469;SDS011;6807;48.682;9.032;2023-06-22T06:08:38;8.38;;;5.30;;
13469;SDS011;6807;48.682;9.032;2023-06-22T06:11:05;5.75;;;4.95;;
13469;SDS011;6807;48.682;9.032;2023-06-22T06:13:33;9.07;;;5.38;;
13469;SDS011;6807;48.682;9.032;2023-06-22T06:16:02;9.90;;;6.32;;
13469;SDS011;6807;48.682;9.032;2023-06-22T06:18:29;6.90;;;5.47;;
13469;SDS011;6807;48.682;9.032;2023-06-22T06:20:56;6.05;;;5.13;;
13469;SDS011;6807;48.682;9.032;2023-06-22T06:23:23;7.63;;;5.30;;
13469;SDS011;6807;48.682;9.032;2023-06-22T06:25:51;7.90;;;5.07;;
13469;SDS011;6807;48.682;9.032;2023-06-22T06:28:18;6.78;;;5.05;;
13469;SDS011;6807;48.682;9.032;2023-06-22T06:34:04;6.82;;;5.25;;
13469;SDS011;6807;48.682;9.032;2023-06-22T06:36:32;8.32;;;5.00;;
13469;SDS011;6807;48.682;9.032;2023-06-22T06:38:59;7.82;;;5.93;;
13469;SDS011;6807;48.682;9.032;2023-06-22T06:41:27;7.60;;;5.30;;
13469;SDS011;6807;48.682;9.032;2023-06-22T06:43:54;8.15;;;4.50;;
13469;SDS011;6807;48.682;9.032;2023-06-22T06:46:21;7.78;;;4.82;;
13469;SDS011;6807;48.682;9.032;2023-06-22T06:48:50;6.38;;;4.72;;
13469;SDS011;6807;48.682;9.032;2023-06-22T06:51:17;8.43;;;5.18;;
13469;SDS011;6807;48.682;9.032;2023-06-22T06:53:44;6.75;;;4.65;;
13469;SDS011;6807;48.682;9.032;2023-06-22T06:56:11;5.95;;;4.63;;
13469;SDS011;6807;48.682;9.032;2023-06-22T06:58:40;6.68;;;5.00;;
13469;SDS011;6807;48.682;9.032;2023-06-22T07:01:10;8.18;;;5.15;;
13469;SDS011;6807;48.682;9.032;2023-06-22T07:03:37;8.60;;;4.88;;
13469;SDS011;6807;48.682;9.032;2023-06-22T13:33:13;9.60;;;5.35;;
13469;SDS011;6807;48.682;9.032;2023-06-22T13:35:40;10.52;;;5.63;;
13469;SDS011;6807;48.682;9.032;2023-06-22T13:38:08;8.93;;;5.35;;
13469;SDS011;6807;48.682;9.032;2023-06-22T13:40:36;8.70;;;5.50;;
13469;SDS011;6807;48.682;9.032;2023-06-22T13:43:04;12.95;;;4.82;;
13469;SDS011;6807;48.682;9.032;2023-06-22T13:45:30;12.63;;;5.13;;
13469;SDS011;6807;48.682;9.032;2023-06-22T13:47:58;12.73;;;5.15;;
13469;SDS011;6807;48.682;9.032;2023-06-22T13:50:26;10.90;;;5.65;;
13469;SDS011;6807;48.682;9.032;2023-06-22T13:55:35;10.45;;;5.18;;
13469;SDS011;6807;48.682;9.032;2023-06-22T13:58:02;9.00;;;4.97;;
13469;SDS011;6807;48.682;9.032;2023-06-22T14:00:29;11.07;;;5.15;;
13469;SDS011;6807;48.682;9.032;2023-06-22T14:03:03;15.52;;;5.25;;
13469;SDS011;6807;48.682;9.032;2023-06-22T14:05:32;8.10;;;5.30;;
13469;SDS011;6807;48.682;9.032;2023-06-22T14:07:59;9.98;;;5.50;;
13469;SDS011;6807;48.682;9.032;2023-06-22T14:10:26;10.88;;;5.50;;
13469;SDS011;6807;48.682;9.032;2023-06-22T14:12:53;11.75;;;5.28;;
13469;SDS011;6807;48.682;9.032;2023-06-22T14:15:20;18.63;;;5.57;;
13469;SDS011;6807;48.682;9.032;2023-06-22T14:17:47;14.18;;;5.10;;
13469;SDS011;6807;48.682;9.032;2023-06-22T14:20:14;7.90;;;5.07;;
13469;SDS011;6807;48.682;9.032;2023-06-22T14:22:43;10.32;;;4.13;;
13469;SDS011;6807;48.682;9.032;2023-06-22T14:25:10;12.97;;;4.73;;
13469;SDS011;6807;48.682;9.032;2023-06-22T14:27:37;8.20;;;3.70;;
13469;SDS011;6807;48.682;9.032;2023-06-22T14:30:04;13.52;;;4.53;;
13469;SDS011;6807;48.682;9.032;2023-06-22T14:32:32;10.43;;;3.95;;
13469;SDS011;6807;48.682;9.032;2023-06-22T14:34:59;11.05;;;3.72;;
13469;SDS011;6807;48.682;9.032;2023-06-22T14:37:26;12.25;;;4.03;;
13469;SDS011;6807;48.682;9.032;2023-06-22T14:39:56;8.75;;;3.88;;
13469;SDS011;6807;48.682;9.032;2023-06-22T14:42:24;9.85;;;3.53;;
13469;SDS011;6807;48.682;9.032;2023-06-22T14:44:51;11.35;;;3.40;;
13469;SDS011;6807;48.682;9.032;2023-06-22T14:47:30;5.97;;;3.28;;
13469;SDS011;6807;48.682;9.032;2023-06-22T14:49:57;10.23;;;3.83;;
13469;SDS011;6807;48.682;9.032;2023-06-22T14:52:25;9.05;;;3.65;;
13469;SDS011;6807;48.682;9.032;2023-06-22T14:54:56;8.13;;;3.60;;
13469;SDS011;6807;48.682;9.032;2023-06-22T15:00:06;7.93;;;3.20;;
13469;SDS011;6807;48.682;9.032;2023-06-22T15:02:41;9.32;;;3.47;;
13469;SDS011;6807;48.682;9.032;2023-06-22T15:05:08;10.25;;;4.18;;
13469;SDS011;6807;48.682;9.032;2023-06-22T15:07:35;10.70;;;3.90;;
13469;SDS011;6807;48.682;9.032;2023-06-22T15:10:05;6.70;;;3.47;;
13469;SDS011;6807;48.682;9.032;2023-06-22T15:12:33;10.98;;;3.13;;
13469;SDS011;6807;48.682;9.032;2023-06-22T15:15:06;7.85;;;3.95;;
13469;SDS011;6807;48.682;9.032;2023-06-22T15:17:33;7.40;;;3.53;;
13469;SDS011;6807;48.682;9.032;2023-06-22T15:20:01;9.60;;;3.55;;
13469;SDS011;6807;48.682;9.032;2023-06-22T15:22:30;9.88;;;3.65;;
13469;SDS011;6807;48.682;9.032;2023-06-22T15:24:57;7.95;;;3.13;;
13469;SDS011;6807;48.682;9.032;2023-06-22T15:27:25;8.18;;;3.22;;
13469;SDS011;6807;48.682;9.032;2023-06-22T15:29:52;9.98;;;3.35;;
13469;SDS011;6807;48.682;9.032;2023-06-22T15:32:20;9.10;;;3.33;;
13469;SDS011;6807;48.682;9.032;2023-06-22T15:34:47;10.23;;;3.40;;
13469;SDS011;6807;48.682;9.032;2023-06-22T15:37:15;6.85;;;3.38;;
13469;SDS011;6807;48.682;9.032;2023-06-22T15:39:43;7.95;;;3.35;;
13469;SDS011;6807;48.682;9.032;2023-06-22T15:42:13;11.00;;;3.38;;
13469;SDS011;6807;48.682;9.032;2023-06-22T15:44:42;9.25;;;4.00;;
13469;SDS011;6807;48.682;9.032;2023-06-22T15:47:09;10.57;;;4.00;;
13469;SDS011;6807;48.682;9.032;2023-06-22T15:49:36;11.80;;;3.80;;
13469;SDS011;6807;48.682;9.032;2023-06-22T15:52:04;9.52;;;3.70;;
13469;SDS011;6807;48.682;9.032;2023-06-22T15:54:31;8.50;;;3.50;;
13469;SDS011;6807;48.682;9.032;2023-06-22T15:59:58;6.97;;;3.17;;
13469;SDS011;6807;48.682;9.032;2023-06-22T16:02:24;11.23;;;3.83;;
13469;SDS011;6807;48.682;9.032;2023-06-22T16:04:53;8.93;;;4.07;;
13469;SDS011;6807;48.682;9.032;2023-06-22T16:07:21;8.65;;;3.72;;
13469;SDS011;6807;48.682;9.032;2023-06-22T16:09:49;8.15;;;3.80;;
13469;SDS011;6807;48.682;9.032;2023-06-22T16:12:17;9.68;;;4.10;;
13469;SDS011;6807;48.682;9.032;2023-06-22T16:14:44;9.68;;;4.38;;
13469;SDS011;6807;48.682;9.032;2023-06-22T16:17:13;10.50;;;3.65;;
13469;SDS011;6807;48.682;9.032;2023-06-22T16:19:40;6.70;;;3.80;;
13469;SDS011;6807;48.682;9.032;2023-06-22T16:22:07;8.02;;;3.58;;
13469;SDS011;6807;48.682;9.032;2023-06-22T16:24:35;8.13;;;4.00;;
13469;SDS011;6807;48.682;9.032;2023-06-22T16:27:07;11.13;;;4.03;;
13469;SDS011;6807;48.682;9.032;2023-06-22T16:29:34;8.55;;;3.78;;
13469;SDS011;6807;48.682;9.032;2023-06-22T16:32:01;8.77;;;3.53;;
13469;SDS011;6807;48.682;9.032;2023-06-22T16:34:30;6.55;;;3.47;;
13469;SDS011;6807;48.682;9.032;2023-06-22T16:36:57;7.28;;;3.67;;
13469;SDS011;6807;48.682;9.032;2023-06-22T16:39:24;9.02;;;3.30;;
13469;SDS011;6807;48.682;9.032;2023-06-22T16:41:51;8.82;;;4.30;;
13469;SDS011;6807;48.682;9.032;2023-06-22T16:44:18;8.93;;;3.60;;
13469;SDS011;6807;48.682;9.032;2023-06-22T16:46:45;10.40;;;3.92;;
13469;SDS011;6807;48.682;9.032;2023-06-22T16:49:12;10.88;;;3.85;;
13469;SDS011;6807;48.682;9.032;2023-06-22T16:51:40;7.57;;;3.83;;
13469;SDS011;6807;48.682;9.032;2023-06-22T16:54:07;9.00;;;3.17;;
13469;SDS011;6807;48.682;9.032;2023-06-22T16:56:34;10.15;;;4.05;;
13469;SDS011;6807;48.682;9.032;2023-06-22T16:59:02;5.93;;;3.17;;
13469;SDS011;6807;48.682;9.032;2023-06-22T17:01:29;8.20;;;3.95;;
13469;SDS011;6807;48.682;9.032;2023-06-22T17:04:01;6.13;;;3.83;;
13469;SDS011;6807;48.682;9.032;2023-06-22T17:06:30;10.80;;;3.70;;
13469;SDS011;6807;48.682;9.032;2023-06-22T17:09:00;8.63;;;3.65;;
13469;SDS011;6807;48.682;9.032;2023-06-22T17:11:28;7.03;;;2.97;;
13469;SDS011;6807;48.682;9.032;2023-06-22T17:13:55;3.88;;;2.72;;
13469;SDS011;6807;48.682;9.032;2023-06-22T17:16:23;7.68;;;3.40;;
13469;SDS011;6807;48.682;9.032;2023-06-22T17:18:52;11.00;;;4.30;;
13469;SDS011;6807;48.682;9.032;2023-06-22T17:21:23;8.40;;;3.05;;
13469;SDS011;6807;48.682;9.032;2023-06-22T17:23:50;10.45;;;4.07;;
13469;SDS011;6807;48.682;9.032;2023-06-22T17:26:20;8.73;;;3.03;;
13469;SDS011;6807;48.682;9.032;2023-06-22T17:28:48;10.25;;;3.55;;
13469;SDS011;6807;48.682;9.032;2023-06-22T17:31:16;9.07;;;3.25;;
13469;SDS011;6807;48.682;9.032;2023-06-22T17:33:43;6.00;;;2.70;;
13469;SDS011;6807;48.682;9.032;2023-06-22T17:36:14;8.32;;;2.65;;
13469;SDS011;6807;48.682;9.032;2023-06-22T17:38:41;4.15;;;2.67;;
13469;SDS011;6807;48.682;9.032;2023-06-22T17:41:08;9.85;;;2.50;;
13469;SDS011;6807;48.682;9.032;2023-06-22T17:43:44;9.10;;;3.13;;
13469;SDS011;6807;48.682;9.032;2023-06-22T17:46:12;8.57;;;3.65;;
13469;SDS011;6807;48.682;9.032;2023-06-22T17:48:42;8.15;;;2.90;;
13469;SDS011;6807;48.682;9.032;2023-06-22T17:51:12;8.68;;;2.92;;
13469;SDS011;6807;48.682;9.032;2023-06-22T17:53:41;7.72;;;2.90;;
13469;SDS011;6807;48.682;9.032;2023-06-22T17:56:13;8.38;;;3.00;;
13469;SDS011;6807;48.682;9.032;2023-06-22T17:58:50;5.70;;;3.05;;
13469;SDS011;6807;48.682;9.032;2023-06-22T18:01:27;5.55;;;2.63;;
13469;SDS011;6807;48.682;9.032;2023-06-22T18:03:55;7.43;;;2.90;;
13469;SDS011;6807;48.682;9.032;2023-06-22T18:06:24;6.93;;;2.58;;
13469;SDS011;6807;48.682;9.032;2023-06-22T18:08:53;6.68;;;2.88;;
13469;SDS011;6807;48.682;9.032;2023-06-22T18:11:28;7.85;;;3.38;;
13469;SDS011;6807;48.682;9.032;2023-06-22T18:14:00;7.30;;;2.80;;
13469;SDS011;6807;48.682;9.032;2023-06-22T18:16:29;9.82;;;2.92;;
13469;SDS011;6807;48.682;9.032;2023-06-22T18:18:58;10.38;;;3.28;;
13469;SDS011;6807;48.682;9.032;2023-06-22T18:21:25;3.20;;;2.30;;
13469;SDS011;6807;48.682;9.032;2023-06-22T18:23:53;5.72;;;2.65;;
13469;SDS011;6807;48.682;9.032;2023-06-22T18:26:20;6.32;;;2.42;;
13469;SDS011;6807;48.682;9.032;2023-06-22T18:28:50;5.00;;;2.85;;
13469;SDS011;6807;48.682;9.032;2023-06-22T18:31:19;11.25;;;3.50;;
13469;SDS011;6807;48.682;9.032;2023-06-22T18:33:47;5.95;;;2.50;;
13469;SDS011;6807;48.682;9.032;2023-06-22T18:36:16;6.32;;;2.80;;
13469;SDS011;6807;48.682;9.032;2023-06-22T18:38:46;9.05;;;2.97;;
13469;SDS011;6807;48.682;9.032;2023-06-22T18:41:20;4.93;;;2.92;;
13469;SDS011;6807;48.682;9.032;2023-06-22T18:43:51;5.22;;;2.75;;
13469;SDS011;6807;48.682;9.032;2023-06-22T18:46:30;5.88;;;2.70;;
13469;SDS011;6807;48.682;9.032;2023-06-22T18:48:59;4.72;;;2.70;;
13469;SDS011;6807;48.682;9.032;2023-06-22T18:51:27;7.03;;;2.35;;
13469;SDS011;6807;48.682;9.032;2023-06-22T18:54:01;6.30;;;2.90;;
13469;SDS011;6807;48.682;9.032;2023-06-22T18:56:29;6.78;;;3.00;;
13469;SDS011;6807;48.682;9.032;2023-06-22T18:58:57;4.13;;;2.42;;
13469;SDS011;6807;48.682;9.032;2023-06-22T19:01:24;6.95;;;2.80;;
13469;SDS011;6807;48.682;9.032;2023-06-22T19:03:57;5.25;;;2.95;;
13469;SDS011;6807;48.682;9.032;2023-06-22T19:09:21;5.47;;;2.47;;
13469;SDS011;6807;48.682;9.032;2023-06-22T19:11:48;4.80;;;3.35;;
13469;SDS011;6807;48.682;9.032;2023-06-22T19:14:19;5.90;;;2.92;;
13469;SDS011;6807;48.682;9.032;2023-06-22T19:16:46;5.60;;;2.85;;
13469;SDS011;6807;48.682;9.032;2023-06-22T19:19:15;6.47;;;3.38;;
13469;SDS011;6807;48.682;9.032;2023-06-22T19:21:42;8.38;;;3.08;;
13469;SDS011;6807;48.682;9.032;2023-06-22T19:24:23;7.97;;;2.80;;
13469;SDS011;6807;48.682;9.032;2023-06-22T19:26:55;8.20;;;3.42;;
13469;SDS011;6807;48.682;9.032;2023-06-22T19:29:22;8.30;;;3.20;;
13469;SDS011;6807;48.682;9.032;2023-06-22T19:31:50;4.68;;;2.90;;
13469;SDS011;6807;48.682;9.032;2023-06-22T19:34:19;8.30;;;3.03;;
13469;SDS011;6807;48.682;9.032;2023-06-22T19:36:46;8.77;;;3.15;;
13469;SDS011;6807;48.682;9.032;2023-06-22T19:39:13;6.18;;;2.97;;
13469;SDS011;6807;48.682;9.032;2023-06-22T19:41:40;5.45;;;2.60;;
13469;SDS011;6807;48.682;9.032;2023-06-22T19:44:07;5.85;;;3.20;;
13469;SDS011;6807;48.682;9.032;2023-06-22T19:46:34;5.13;;;3.33;;
13469;SDS011;6807;48.682;9.032;2023-06-22T19:49:01;5.05;;;3.35;;
13469;SDS011;6807;48.682;9.032;2023-06-22T19:51:33;13.90;;;3.53;;
13469;SDS011;6807;48.682;9.032;2023-06-22T19:54:04;6.53;;;3.58;;
13469;SDS011;6807;48.682;9.032;2023-06-22T19:56:32;7.30;;;2.95;;
13469;SDS011;6807;48.682;9.032;2023-06-22T19:59:08;5.38;;;3.10;;
13469;SDS011;6807;48.682;9.032;2023-06-22T20:01:35;4.68;;;3.00;;
13469;SDS011;6807;48.682;9.032;2023-06-22T20:04:03;8.63;;;3.30;;
13469;SDS011;6807;48.682;9.032;2023-06-22T20:06:30;7.80;;;3.58;;
13469;SDS011;6807;48.682;9.032;2023-06-22T20:08:59;6.90;;;2.97;;
13469;SDS011;6807;48.682;9.032;2023-06-22T20:11:29;5.63;;;3.40;;
13469;SDS011;6807;48.682;9.032;2023-06-22T20:13:58;8.20;;;3.10;;
13469;SDS011;6807;48.682;9.032;2023-06-22T20:16:26;6.82;;;3.13;;
13469;SDS011;6807;48.682;9.032;2023-06-22T20:19:04;4.63;;;3.15;;
13469;SDS011;6807;48.682;9.032;2023-06-22T20:21:37;4.38;;;3.20;;
13469;SDS011;6807;48.682;9.032;2023-06-22T20:24:06;5.57;;;2.88;;
13469;SDS011;6807;48.682;9.032;2023-06-22T20:26:38;4.30;;;3.13;;
13469;SDS011;6807;48.682;9.032;2023-06-22T20:29:25;5.30;;;3.03;;
13469;SDS011;6807;48.682;9.032;2023-06-22T20:32:04;5.45;;;3.15;;
13469;SDS011;6807;48.682;9.032;2023-06-22T20:34:35;6.65;;;3.45;;
13469;SDS011;6807;48.682;9.032;2023-06-22T20:37:04;6.20;;;3.03;;
13469;SDS011;6807;48.682;9.032;2023-06-22T20:39:34;5.32;;;3.20;;
13469;SDS011;6807;48.682;9.032;2023-06-22T20:42:01;4.80;;;3.15;;
13469;SDS011;6807;48.682;9.032;2023-06-22T20:44:30;5.97;;;3.20;;
13469;SDS011;6807;48.682;9.032;2023-06-22T20:46:58;4.93;;;3.15;;
13469;SDS011;6807;48.682;9.032;2023-06-22T20:49:25;5.38;;;2.90;;
13469;SDS011;6807;48.682;9.032;2023-06-22T20:51:53;6.97;;;3.35;;
13469;SDS011;6807;48.682;9.032;2023-06-22T20:54:20;2.40;;;2.20;;
13469;SDS011;6807;48.682;9.032;2023-06-22T20:56:49;3.65;;;2.13;;
13469;SDS011;6807;48.682;9.032;2023-06-22T20:59:16;3.50;;;2.50;;
13469;SDS011;6807;48.682;9.032;2023-06-22T21:01:43;4.13;;;2.45;;
13469;SDS011;6807;48.682;9.032;2023-06-22T21:04:11;3.30;;;2.50;;
13469;SDS011;6807;48.682;9.032;2023-06-22T21:06:38;2.45;;;2.22;;
13469;SDS011;6807;48.682;9.032;2023-06-22T21:09:05;3.42;;;2.00;;
13469;SDS011;6807;48.682;9.032;2023-06-22T21:11:32;5.25;;;2.33;;
13469;SDS011;6807;48.682;9.032;2023-06-22T21:14:01;2.80;;;1.85;;
13469;SDS011;6807;48.682;9.032;2023-06-22T21:16:28;5.45;;;2.03;;
13469;SDS011;6807;48.682;9.032;2023-06-22T21:18:55;2.28;;;1.98;;
13469;SDS011;6807;48.682;9.032;2023-06-22T21:21:22;2.58;;;1.88;;
13469;SDS011;6807;48.682;9.032;2023-06-22T21:23:49;2.17;;;1.92;;
13469;SDS011;6807;48.682;9.032;2023-06-22T21:26:16;3.10;;;2.30;;
13469;SDS011;6807;48.682;9.032;2023-06-22T21:28:43;4.18;;;2.00;;
13469;SDS011;6807;48.682;9.032;2023-06-22T21:31:12;3.45;;;2.15;;
13469;SDS011;6807;48.682;9.032;2023-06-22T21:33:39;2.83;;;2.00;;
13469;SDS011;6807;48.682;9.032;2023-06-22T21:36:06;2.13;;;1.80;;
13469;SDS011;6807;48.682;9.032;2023-06-22T21:38:33;2.80;;;1.95;;
13469;SDS011;6807;48.682;9.032;2023-06-22T21:41:00;3.88;;;2.00;;
13469;SDS011;6807;48.682;9.032;2023-06-22T21:43:27;2.38;;;1.90;;
13469;SDS011;6807;48.682;9.032;2023-06-22T21:45:54;1.90;;;1.80;;
13469;SDS011;6807;48.682;9.032;2023-06-22T21:48:22;2.00;;;1.55;;